createdAt,value
2017-04-25T00:00:44.830Z,40.03
2017-04-25T00:01:44.853Z,39.64
2017-04-25T00:02:44.883Z,40.03
2017-04-25T00:03:44.913Z,40.03
2017-04-25T00:04:44.940Z,40.03
2017-04-25T00:05:44.966Z,39.64
2017-04-25T00:06:44.986Z,39.74
2017-04-25T00:07:44.717Z,39.64
2017-04-25T00:08:45.047Z,39.94
2017-04-25T00:09:45.076Z,39.74
2017-04-25T00:10:44.781Z,39.74
2017-04-25T00:11:44.810Z,39.84
2017-04-25T00:12:45.402Z,39.94
2017-04-25T00:13:45.179Z,39.84
2017-04-25T00:14:44.895Z,39.94
2017-04-25T00:15:45.242Z,39.94
2017-04-25T00:16:45.261Z,39.94
2017-04-25T00:17:45.546Z,39.84
2017-04-25T00:18:45.320Z,40.03
2017-04-25T00:19:45.339Z,39.74
2017-04-25T00:20:45.372Z,39.74
2017-04-25T00:21:45.398Z,39.84
2017-04-25T00:22:45.366Z,39.94
2017-04-25T00:23:45.451Z,39.84
2017-04-25T00:24:45.484Z,40.03
2017-04-25T00:25:45.509Z,40.03
2017-04-25T00:26:45.537Z,40.03
2017-04-25T00:27:45.809Z,40.03
2017-04-25T00:28:45.275Z,39.94
2017-04-25T00:29:45.299Z,39.64
2017-04-25T00:30:45.327Z,39.74
2017-04-25T00:31:45.669Z,39.94
2017-04-25T00:32:45.947Z,39.94
2017-04-25T00:33:45.411Z,39.64
2017-04-25T00:34:45.755Z,40.03
2017-04-25T00:35:45.780Z,39.94
2017-04-25T00:36:45.808Z,40.03
2017-04-25T00:37:46.085Z,40.03
2017-04-25T00:38:45.858Z,40.03
2017-04-25T00:39:45.890Z,39.94
2017-04-25T00:40:45.911Z,39.84
2017-04-25T00:41:45.941Z,39.94
2017-04-25T00:42:45.960Z,39.94
2017-04-25T00:43:45.686Z,39.84
2017-04-25T00:44:46.027Z,40.03
2017-04-25T00:45:46.051Z,40.03
2017-04-25T00:47:20.864Z,39.74
2017-04-25T00:47:46.113Z,39.74
2017-04-25T00:48:46.131Z,40.03
2017-04-25T00:49:46.161Z,40.03
2017-04-25T00:50:46.187Z,40.03
2017-04-25T00:51:46.212Z,40.03
2017-04-25T00:52:45.962Z,40.03
2017-04-25T00:53:45.952Z,40.22
2017-04-25T00:54:46.295Z,40.03
2017-04-25T00:55:46.322Z,39.84
2017-04-25T00:56:46.031Z,39.64
2017-04-25T00:57:46.060Z,40.12
2017-04-25T00:58:46.093Z,39.74
2017-04-25T00:59:46.114Z,40.12
2017-04-25T01:00:46.459Z,39.94
2017-04-25T01:01:46.164Z,40.12
2017-04-25T01:02:46.195Z,40.03
2017-04-25T01:03:46.538Z,40.12
2017-04-25T01:04:46.562Z,39.84
2017-04-25T01:05:46.595Z,40.12
2017-04-25T01:06:46.621Z,39.94
2017-04-25T01:07:46.640Z,40.03
2017-04-25T01:08:46.349Z,40.03
2017-04-25T01:09:46.708Z,39.94
2017-04-25T01:10:46.722Z,39.94
2017-04-25T01:11:46.435Z,39.64
2017-04-25T01:12:46.780Z,40.03
2017-04-25T01:13:46.801Z,40.03
2017-04-25T01:14:46.838Z,39.94
2017-04-25T01:15:46.862Z,39.94
2017-04-25T01:16:46.891Z,39.94
2017-04-25T01:17:46.916Z,40.03
2017-04-25T01:18:46.936Z,40.01
2017-04-25T01:19:46.974Z,40.03
2017-04-25T01:20:46.999Z,39.91
2017-04-25T01:21:47.018Z,40.01
2017-04-25T01:22:47.046Z,40.01
2017-04-25T01:23:47.086Z,39.84
2017-04-25T01:24:47.142Z,39.84
2017-04-25T01:25:47.138Z,39.91
2017-04-25T01:26:47.154Z,39.62
2017-04-25T01:27:47.182Z,40.01
2017-04-25T01:28:47.212Z,39.72
2017-04-25T01:29:47.240Z,39.82
2017-04-25T01:30:47.264Z,40.01
2017-04-25T01:31:47.291Z,40.11
2017-04-25T01:32:47.318Z,40.11
2017-04-25T01:33:47.347Z,40.11
2017-04-25T01:34:47.373Z,39.91
2017-04-25T01:35:47.081Z,40.11
2017-04-25T01:36:47.429Z,39.82
2017-04-25T01:37:47.135Z,39.82
2017-04-25T01:38:47.487Z,40.11
2017-04-25T01:39:47.502Z,40.11
2017-04-25T01:40:47.215Z,40.01
2017-04-25T01:41:47.557Z,40.11
2017-04-25T01:42:47.622Z,40.01
2017-04-25T01:43:47.614Z,40.11
2017-04-25T01:44:47.638Z,40.11
2017-04-25T01:45:47.352Z,40.01
2017-04-25T01:46:47.697Z,39.91
2017-04-25T01:47:47.722Z,39.91
2017-04-25T01:48:47.750Z,40.12
2017-04-25T01:49:47.769Z,39.82
2017-04-25T01:50:47.804Z,40.01
2017-04-25T01:51:47.513Z,40.2
2017-04-25T01:52:47.857Z,40.2
2017-04-25T01:53:47.573Z,40.2
2017-04-25T01:54:47.599Z,40.11
2017-04-25T01:55:47.936Z,39.53
2017-04-25T01:56:47.965Z,40.01
2017-04-25T01:57:47.995Z,40.2
2017-04-25T01:58:48.019Z,40.01
2017-04-25T01:59:48.047Z,40.11
2017-04-25T02:00:48.072Z,40.01
2017-04-25T02:01:48.102Z,40.01
2017-04-25T02:02:48.126Z,39.62
2017-04-25T02:03:48.156Z,39.62
2017-04-25T02:04:48.183Z,39.53
2017-04-25T02:05:48.199Z,39.43
2017-04-25T02:06:47.916Z,39.82
2017-04-25T02:07:47.945Z,39.72
2017-04-25T02:08:48.286Z,39.24
2017-04-25T02:09:48.312Z,39.53
2017-04-25T02:10:48.331Z,39.14
2017-04-25T02:11:48.365Z,39.14
2017-04-25T02:12:48.393Z,39.24
2017-04-25T02:13:48.425Z,39.62
2017-04-25T02:14:48.446Z,39.14
2017-04-25T02:15:48.155Z,39.14
2017-04-25T02:16:48.188Z,39.53
2017-04-25T02:17:48.532Z,39.14
2017-04-25T02:18:48.557Z,39.24
2017-04-25T02:19:48.577Z,39.62
2017-04-25T02:20:48.293Z,39.53
2017-04-25T02:21:48.628Z,39.24
2017-04-25T02:22:48.664Z,39.53
2017-04-25T02:23:48.688Z,39.14
2017-04-25T02:24:48.715Z,39.53
2017-04-25T02:25:48.737Z,39.14
2017-04-25T02:26:48.767Z,39.53
2017-04-25T02:27:48.488Z,39.53
2017-04-25T02:28:49.073Z,39.53
2017-04-25T02:29:48.847Z,39.53
2017-04-25T02:30:48.879Z,39.62
2017-04-25T02:31:48.894Z,39.53
2017-04-25T02:32:48.616Z,39.14
2017-04-25T02:33:49.209Z,39.43
2017-04-25T02:34:48.982Z,39.43
2017-04-25T02:35:49.014Z,39.43
2017-04-25T02:36:49.037Z,39.24
2017-04-25T02:37:48.747Z,39.43
2017-04-25T02:38:49.340Z,39.43
2017-04-25T02:39:49.120Z,39.24
2017-04-25T02:40:48.831Z,39.43
2017-04-25T02:41:49.167Z,39.53
2017-04-25T02:42:49.187Z,39.43
2017-04-25T02:43:49.476Z,39.24
2017-04-25T02:44:49.245Z,39.43
2017-04-25T02:45:49.276Z,39.24
2017-04-25T02:46:49.302Z,39.34
2017-04-25T02:47:49.011Z,39.34
2017-04-25T02:48:49.290Z,39.34
2017-04-25T02:49:49.384Z,39.53
2017-04-25T02:50:49.412Z,39.34
2017-04-25T02:51:49.119Z,39.34
2017-04-25T02:52:49.454Z,39.43
2017-04-25T02:53:49.743Z,39.43
2017-04-25T02:54:49.520Z,39.34
2017-04-25T02:55:49.544Z,39.34
2017-04-25T02:56:49.559Z,39.53
2017-04-25T02:57:49.593Z,39.34
2017-04-25T02:58:49.558Z,39.34
2017-04-25T02:59:49.651Z,39.53
2017-04-25T03:00:49.352Z,39.53
2017-04-25T03:01:49.705Z,39.72
2017-04-25T03:02:49.726Z,39.43
2017-04-25T03:03:50.011Z,39.34
2017-04-25T03:04:49.780Z,39.31
2017-04-25T03:05:49.805Z,39.62
2017-04-25T03:06:49.835Z,39.72
2017-04-25T03:07:49.857Z,39.12
2017-04-25T03:08:50.137Z,39.12
2017-04-25T03:09:49.915Z,39.04
2017-04-25T03:10:49.944Z,39.51
2017-04-25T03:11:49.965Z,39.41
2017-04-25T03:12:49.681Z,39.14
2017-04-25T03:13:50.015Z,39.12
2017-04-25T03:14:50.052Z,38.95
2017-04-25T03:15:50.072Z,39.24
2017-04-25T03:16:50.104Z,39.24
2017-04-25T03:17:50.134Z,39.22
2017-04-25T03:18:50.155Z,39.03
2017-04-25T03:19:50.184Z,38.95
2017-04-25T03:20:50.211Z,39.14
2017-04-25T03:21:50.232Z,38.93
2017-04-25T03:22:50.261Z,39.03
2017-04-25T03:23:50.291Z,38.76
2017-04-25T03:24:50.309Z,38.66
2017-04-25T03:25:50.344Z,38.74
2017-04-25T03:26:50.368Z,38.66
2017-04-25T03:27:50.396Z,38.54
2017-04-25T03:28:50.418Z,38.83
2017-04-25T03:29:50.446Z,38.83
2017-04-25T03:30:50.156Z,38.83
2017-04-25T03:31:50.505Z,38.54
2017-04-25T03:32:50.533Z,38.93
2017-04-25T03:33:50.558Z,39.04
2017-04-25T03:34:50.582Z,38.93
2017-04-25T03:35:50.607Z,38.93
2017-04-25T03:36:50.635Z,39.03
2017-04-25T03:37:50.661Z,39.03
2017-04-25T03:38:50.382Z,39.03
2017-04-25T03:39:50.713Z,39.12
2017-04-25T03:40:50.739Z,38.83
2017-04-25T03:41:50.770Z,39.24
2017-04-25T03:42:50.804Z,38.74
2017-04-25T03:43:50.834Z,39.12
2017-04-25T03:44:50.846Z,39.12
2017-04-25T03:45:50.874Z,38.83
2017-04-25T03:46:50.903Z,38.95
2017-04-25T03:47:50.924Z,38.83
2017-04-25T03:48:50.955Z,38.83
2017-04-25T03:49:50.657Z,38.64
2017-04-25T03:50:51.007Z,38.54
2017-04-25T03:51:50.723Z,38.64
2017-04-25T03:52:51.065Z,38.83
2017-04-25T03:53:51.085Z,38.74
2017-04-25T03:54:50.801Z,38.93
2017-04-25T03:55:51.142Z,38.35
2017-04-25T03:56:51.169Z,38.54
2017-04-25T03:57:51.187Z,38.74
2017-04-25T03:58:51.223Z,38.74
2017-04-25T03:59:51.249Z,38.54
2017-04-25T04:00:51.277Z,38.74
2017-04-25T04:01:51.305Z,38.74
2017-04-25T04:02:51.328Z,38.74
2017-04-25T04:03:51.361Z,38.54
2017-04-25T04:04:51.067Z,38.64
2017-04-25T04:05:51.094Z,38.74
2017-04-25T04:06:51.431Z,38.74
2017-04-25T04:07:51.463Z,38.74
2017-04-25T04:08:51.488Z,39.12
2017-04-25T04:09:51.200Z,38.74
2017-04-25T04:10:51.540Z,38.64
2017-04-25T04:11:51.249Z,39.03
2017-04-25T04:12:51.597Z,38.54
2017-04-25T04:13:51.624Z,38.74
2017-04-25T04:14:51.644Z,38.54
2017-04-25T04:15:51.362Z,38.54
2017-04-25T04:16:51.693Z,38.54
2017-04-25T04:17:51.730Z,38.74
2017-04-25T04:18:51.758Z,38.74
2017-04-25T04:19:51.783Z,38.93
2017-04-25T04:20:51.808Z,38.93
2017-04-25T04:21:51.824Z,38.54
2017-04-25T04:22:51.861Z,39.22
2017-04-25T04:23:51.890Z,39.22
2017-04-25T04:24:51.599Z,38.64
2017-04-25T04:25:51.936Z,38.45
2017-04-25T04:26:51.965Z,39.03
2017-04-25T04:27:51.989Z,38.93
2017-04-25T04:28:51.707Z,38.64
2017-04-25T04:29:51.727Z,38.64
2017-04-25T04:30:52.075Z,38.93
2017-04-25T04:31:52.103Z,38.93
2017-04-25T04:32:52.126Z,38.74
2017-04-25T04:33:51.839Z,38.93
2017-04-25T04:34:51.863Z,38.93
2017-04-25T04:35:52.205Z,38.93
2017-04-25T04:36:52.232Z,39.22
2017-04-25T04:37:52.249Z,39.22
2017-04-25T04:38:52.294Z,38.74
2017-04-25T04:39:51.994Z,39.22
2017-04-25T04:40:52.023Z,38.74
2017-04-25T04:41:52.368Z,38.74
2017-04-25T04:42:52.076Z,39.22
2017-04-25T04:43:52.421Z,38.74
2017-04-25T04:44:52.446Z,38.74
2017-04-25T04:45:52.478Z,38.83
2017-04-25T04:46:52.500Z,38.64
2017-04-25T04:47:52.525Z,38.54
2017-04-25T04:48:52.549Z,38.83
2017-04-25T04:49:52.581Z,38.64
2017-04-25T04:50:52.287Z,38.74
2017-04-25T04:51:52.627Z,38.83
2017-04-25T04:52:52.662Z,38.93
2017-04-25T04:53:52.684Z,38.54
2017-04-25T04:54:52.715Z,38.45
2017-04-25T04:55:52.419Z,38.54
2017-04-25T04:56:52.765Z,38.45
2017-04-25T04:57:52.790Z,38.45
2017-04-25T04:58:52.816Z,38.54
2017-04-25T04:59:52.847Z,38.74
2017-04-25T05:00:52.874Z,38.54
2017-04-25T05:01:52.899Z,38.83
2017-04-25T05:02:52.929Z,38.83
2017-04-25T05:03:52.632Z,38.93
2017-04-25T05:04:52.661Z,38.83
2017-04-25T05:05:52.690Z,38.93
2017-04-25T05:06:53.036Z,38.83
2017-04-25T05:07:53.059Z,38.83
2017-04-25T05:08:53.085Z,38.93
2017-04-25T05:09:53.109Z,38.74
2017-04-25T05:10:53.138Z,38.83
2017-04-25T05:11:52.850Z,38.83
2017-04-25T05:12:53.193Z,38.64
2017-04-25T05:13:53.224Z,38.85
2017-04-25T05:14:53.237Z,38.83
2017-04-25T05:15:53.273Z,38.83
2017-04-25T05:16:53.302Z,38.83
2017-04-25T05:17:53.326Z,38.83
2017-04-25T05:18:53.033Z,38.64
2017-04-25T05:19:53.372Z,38.45
2017-04-25T05:20:53.090Z,38.26
2017-04-25T05:21:53.119Z,38.35
2017-04-25T05:22:53.454Z,38.95
2017-04-25T05:23:53.489Z,38.35
2017-04-25T05:24:53.513Z,38.45
2017-04-25T05:25:53.537Z,38.08
2017-04-25T05:26:53.566Z,38.37
2017-04-25T05:27:53.595Z,38.64
2017-04-25T05:28:53.616Z,38.45
2017-04-25T05:29:53.584Z,38.35
2017-04-25T05:30:53.667Z,38.37
2017-04-25T05:31:53.702Z,38.37
2017-04-25T05:32:53.728Z,38.26
2017-04-25T05:33:53.759Z,38.35
2017-04-25T05:34:54.036Z,38.35
2017-04-25T05:35:53.797Z,38.35
2017-04-25T05:36:53.834Z,37.79
2017-04-25T05:37:53.856Z,37.79
2017-04-25T05:38:53.890Z,38.35
2017-04-25T05:39:54.159Z,38.08
2017-04-25T05:40:53.927Z,38.56
2017-04-25T05:41:53.964Z,38.28
2017-04-25T05:42:53.681Z,37.98
2017-04-25T05:43:54.026Z,38.46
2017-04-25T05:44:54.295Z,37.89
2017-04-25T05:45:53.752Z,37.89
2017-04-25T05:46:54.101Z,37.98
2017-04-25T05:47:54.124Z,38.08
2017-04-25T05:48:54.150Z,37.98
2017-04-25T05:49:54.430Z,38.37
2017-04-25T05:50:54.203Z,38.37
2017-04-25T05:51:54.231Z,38.37
2017-04-25T05:52:54.257Z,38.28
2017-04-25T05:53:53.970Z,38.08
2017-04-25T05:54:54.562Z,38.37
2017-04-25T05:55:54.335Z,37.79
2017-04-25T05:56:54.363Z,37.98
2017-04-25T05:57:54.392Z,37.89
2017-04-25T05:58:54.418Z,37.79
2017-04-25T05:59:54.690Z,38.08
2017-04-25T06:00:54.467Z,38.08
2017-04-25T06:01:54.179Z,38.37
2017-04-25T06:02:54.524Z,38.08
2017-04-25T06:03:54.238Z,37.89
2017-04-25T06:04:54.831Z,37.7
2017-04-25T06:05:54.607Z,37.89
2017-04-25T06:06:54.641Z,37.79
2017-04-25T06:07:54.672Z,37.89
2017-04-25T06:08:54.368Z,37.7
2017-04-25T06:09:54.961Z,37.79
2017-04-25T06:10:54.734Z,37.98
2017-04-25T06:11:54.751Z,37.89
2017-04-25T06:12:54.768Z,37.89
2017-04-25T06:13:54.840Z,37.79
2017-04-25T06:14:55.085Z,37.79
2017-04-25T06:15:54.541Z,38.08
2017-04-25T06:16:54.881Z,38.08
2017-04-25T06:17:54.955Z,38.08
2017-04-25T06:18:54.937Z,38.08
2017-04-25T06:19:54.903Z,37.89
2017-04-25T06:20:54.993Z,37.41
2017-04-25T06:21:55.022Z,37.6
2017-04-25T06:22:54.728Z,37.98
2017-04-25T06:23:55.072Z,37.98
2017-04-25T06:24:55.347Z,37.89
2017-04-25T06:25:55.121Z,37.7
2017-04-25T06:26:55.146Z,37.5
2017-04-25T06:27:54.863Z,37.98
2017-04-25T06:28:54.888Z,37.98
2017-04-25T06:29:54.921Z,37.98
2017-04-25T06:30:55.258Z,37.79
2017-04-25T06:31:55.290Z,37.79
2017-04-25T06:32:55.310Z,38.08
2017-04-25T06:33:55.027Z,37.89
2017-04-25T06:34:55.364Z,38.08
2017-04-25T06:35:55.393Z,38.08
2017-04-25T06:36:55.418Z,37.89
2017-04-25T06:37:55.451Z,37.89
2017-04-25T06:38:55.462Z,38.08
2017-04-25T06:39:55.501Z,38.08
2017-04-25T06:40:55.524Z,37.98
2017-04-25T06:41:55.243Z,38.08
2017-04-25T06:42:55.576Z,38.08
2017-04-25T06:43:55.295Z,37.89
2017-04-25T06:44:55.630Z,37.98
2017-04-25T06:45:55.657Z,37.89
2017-04-25T06:46:55.685Z,37.79
2017-04-25T06:47:55.402Z,38.08
2017-04-25T06:48:55.739Z,38.08
2017-04-25T06:49:55.768Z,38.08
2017-04-25T06:50:55.480Z,38.08
2017-04-25T06:51:55.820Z,37.79
2017-04-25T06:52:55.848Z,37.7
2017-04-25T06:53:55.871Z,37.98
2017-04-25T06:54:55.590Z,38.18
2017-04-25T06:55:55.928Z,37.89
2017-04-25T06:56:55.957Z,37.89
2017-04-25T06:57:55.986Z,37.7
2017-04-25T06:58:55.697Z,38.08
2017-04-25T06:59:56.032Z,37.89
2017-04-25T07:00:56.064Z,38.18
2017-04-25T07:01:56.089Z,37.98
2017-04-25T07:02:56.109Z,37.79
2017-04-25T07:03:56.145Z,38.08
2017-04-25T07:04:56.198Z,38.08
2017-04-25T07:05:55.882Z,37.98
2017-04-25T07:06:56.222Z,37.98
2017-04-25T07:07:56.251Z,37.89
2017-04-25T07:08:56.274Z,38.08
2017-04-25T07:09:56.299Z,37.89
2017-04-25T07:10:56.018Z,37.89
2017-04-25T07:11:56.357Z,38.08
2017-04-25T07:12:56.069Z,38.37
2017-04-25T07:13:56.405Z,38.08
2017-04-25T07:14:56.434Z,38.37
2017-04-25T07:15:56.465Z,38.37
2017-04-25T07:16:56.487Z,37.89
2017-04-25T07:17:56.513Z,38.08
2017-04-25T07:18:56.546Z,37.98
2017-04-25T07:19:56.569Z,37.98
2017-04-25T07:20:56.599Z,37.7
2017-04-25T07:21:56.620Z,38.37
2017-04-25T07:22:56.340Z,38.08
2017-04-25T07:23:56.677Z,38.56
2017-04-25T07:24:56.709Z,38.46
2017-04-25T07:25:56.734Z,37.89
2017-04-25T07:26:56.447Z,37.98
2017-04-25T07:27:56.786Z,38.37
2017-04-25T07:28:56.812Z,38.08
2017-04-25T07:29:56.843Z,38.08
2017-04-25T07:30:57.121Z,38.37
2017-04-25T07:31:56.583Z,38.28
2017-04-25T07:32:56.919Z,39.04
2017-04-25T07:33:56.948Z,38.76
2017-04-25T07:34:57.001Z,39.04
2017-04-25T07:35:57.249Z,39.22
2017-04-25T07:36:57.027Z,38.85
2017-04-25T07:37:57.056Z,38.76
2017-04-25T07:38:57.079Z,38.85
2017-04-25T07:39:56.797Z,38.54
2017-04-25T07:40:57.071Z,38.85
2017-04-25T07:41:57.163Z,38.85
2017-04-25T07:42:56.878Z,38.64
2017-04-25T07:43:56.901Z,38.85
2017-04-25T07:44:57.243Z,38.45
2017-04-25T07:45:57.521Z,38.54
2017-04-25T07:46:57.295Z,38.54
2017-04-25T07:47:57.338Z,38.83
2017-04-25T07:48:57.347Z,38.54
2017-04-25T07:49:57.064Z,38.93
2017-04-25T07:50:57.648Z,39.03
2017-04-25T07:51:57.425Z,38.74
2017-04-25T07:52:57.142Z,39.12
2017-04-25T07:53:57.479Z,39.03
2017-04-25T07:54:57.509Z,38.93
2017-04-25T07:55:57.476Z,39.03
2017-04-25T07:56:57.558Z,39.12
2017-04-25T07:57:57.585Z,38.64
2017-04-25T07:58:57.619Z,38.64
2017-04-25T07:59:57.323Z,38.74
2017-04-25T08:00:57.920Z,39.03
2017-04-25T08:01:57.382Z,39.12
2017-04-25T08:02:57.722Z,39.22
2017-04-25T08:03:57.750Z,39.03
2017-04-25T08:04:57.779Z,39.41
2017-04-25T08:05:58.052Z,39.03
2017-04-25T08:06:57.829Z,39.51
2017-04-25T08:07:57.853Z,39.31
2017-04-25T08:08:57.570Z,39.79
2017-04-25T08:09:57.919Z,39.41
2017-04-25T08:10:58.185Z,39.51
2017-04-25T08:11:57.962Z,39.22
2017-04-25T08:12:57.986Z,39.22
2017-04-25T08:13:58.014Z,39.41
2017-04-25T08:14:58.038Z,39.61
2017-04-25T08:15:58.066Z,39.51
2017-04-25T08:16:58.096Z,39.41
2017-04-25T08:17:57.805Z,39.41
2017-04-25T08:18:58.150Z,39.41
2017-04-25T08:19:58.175Z,39.41
2017-04-25T08:20:58.199Z,39.31
2017-04-25T08:21:58.229Z,39.31
2017-04-25T08:22:58.256Z,39.12
2017-04-25T08:23:58.281Z,39.22
2017-04-25T08:24:58.301Z,39.31
2017-04-25T08:25:58.326Z,39.51
2017-04-25T08:26:58.360Z,39.12
2017-04-25T08:27:58.394Z,39.12
2017-04-25T08:28:58.413Z,39.51
2017-04-25T08:29:58.129Z,39.51
2017-04-25T08:30:58.468Z,39.51
2017-04-25T08:31:58.495Z,39.51
2017-04-25T08:32:58.211Z,39.51
2017-04-25T08:33:58.546Z,39.12
2017-04-25T08:34:58.574Z,39.61
2017-04-25T08:35:58.597Z,39.12
2017-04-25T08:36:58.628Z,39.41
2017-04-25T08:37:58.652Z,39.7
2017-04-25T08:38:58.676Z,39.7
2017-04-25T08:39:58.706Z,40.09
2017-04-25T08:40:58.735Z,39.61
2017-04-25T08:41:58.459Z,39.22
2017-04-25T08:42:58.787Z,39.99
2017-04-25T08:43:58.814Z,40.19
2017-04-25T08:44:58.829Z,39.61
2017-04-25T08:45:58.862Z,40.09
2017-04-25T08:46:58.890Z,39.7
2017-04-25T08:47:58.610Z,39.7
2017-04-25T08:48:58.945Z,39.99
2017-04-25T08:49:58.973Z,40.19
2017-04-25T08:50:58.997Z,40.19
2017-04-25T08:51:58.715Z,39.89
2017-04-25T08:52:59.052Z,40.19
2017-04-25T08:53:59.076Z,40.19
2017-04-25T08:54:59.103Z,39.99
2017-04-25T08:55:59.130Z,39.99
2017-04-25T08:56:59.158Z,39.51
2017-04-25T08:57:59.183Z,39.12
2017-04-25T08:58:59.207Z,39.12
2017-04-25T08:59:58.957Z,39.51
2017-04-25T09:00:58.949Z,39.51
2017-04-25T09:01:59.540Z,39.51
2017-04-25T09:02:59.002Z,39.12
2017-04-25T09:03:59.026Z,39.51
2017-04-25T09:04:59.364Z,39.51
2017-04-25T09:05:59.079Z,39.51
2017-04-25T09:06:59.678Z,39.51
2017-04-25T09:07:59.137Z,39.22
2017-04-25T09:08:59.475Z,39.31
2017-04-25T09:09:59.504Z,39.22
2017-04-25T09:10:59.520Z,39.61
2017-04-25T09:11:59.489Z,39.31
2017-04-25T09:12:59.582Z,39.51
2017-04-25T09:13:59.607Z,39.51
2017-04-25T09:14:59.324Z,39.12
2017-04-25T09:15:59.652Z,39.41
2017-04-25T09:16:59.629Z,39.61
2017-04-25T09:17:59.710Z,39.31
2017-04-25T09:18:59.742Z,39.79
2017-04-25T09:19:59.763Z,39.51
2017-04-25T09:20:59.791Z,39.22
2017-04-25T09:21:59.759Z,39.51
2017-04-25T09:22:59.534Z,39.12
2017-04-25T09:23:59.880Z,39.51
2017-04-25T09:24:59.900Z,39.51
2017-04-25T09:25:59.614Z,39.61
2017-04-25T09:26:59.890Z,39.51
2017-04-25T09:27:59.976Z,39.22
2017-04-25T09:29:00.006Z,39.61
2017-04-25T09:30:00.030Z,39.61
2017-04-25T09:31:00.059Z,39.22
2017-04-25T09:32:00.340Z,39.41
2017-04-25T09:33:00.113Z,39.41
2017-04-25T09:34:00.137Z,39.61
2017-04-25T09:35:00.166Z,39.12
2017-04-25T09:36:00.187Z,39.41
2017-04-25T09:36:59.904Z,39.31
2017-04-25T09:38:00.244Z,39.61
2017-04-25T09:38:59.954Z,39.22
2017-04-25T09:40:00.301Z,39.31
2017-04-25T09:41:00.318Z,39.51
2017-04-25T09:42:00.350Z,39.41
2017-04-25T09:43:00.064Z,39.22
2017-04-25T09:44:00.404Z,39.12
2017-04-25T09:45:00.428Z,39.2
2017-04-25T09:46:00.450Z,39.41
2017-04-25T09:47:00.176Z,39.51
2017-04-25T09:48:00.507Z,39.51
2017-04-25T09:49:00.536Z,39.41
2017-04-25T09:50:00.249Z,39.51
2017-04-25T09:51:00.594Z,39.51
2017-04-25T09:52:00.305Z,39.31
2017-04-25T09:53:00.638Z,39.22
2017-04-25T09:54:00.354Z,39.41
2017-04-25T09:55:00.377Z,39.22
2017-04-25T09:56:00.409Z,39.12
2017-04-25T09:57:00.754Z,39.41
2017-04-25T09:58:00.775Z,39.31
2017-04-25T09:59:00.799Z,39.51
2017-04-25T10:00:00.830Z,39.12
2017-04-25T10:01:00.854Z,39.51
2017-04-25T10:02:00.882Z,39.61
2017-04-25T10:03:00.906Z,39.51
2017-04-25T10:04:00.940Z,39.12
2017-04-25T10:05:00.960Z,39.22
2017-04-25T10:06:00.988Z,39.51
2017-04-25T10:07:01.013Z,39.31
2017-04-25T10:08:01.044Z,39.31
2017-04-25T10:09:01.059Z,39.12
2017-04-25T10:10:01.091Z,39.51
2017-04-25T10:11:01.120Z,39.51
2017-04-25T10:12:01.146Z,39.61
2017-04-25T10:13:01.171Z,39.51
2017-04-25T10:14:01.197Z,39.51
2017-04-25T10:15:01.228Z,39.31
2017-04-25T10:16:01.253Z,39.22
2017-04-25T10:17:01.277Z,39.22
2017-04-25T10:18:01.307Z,39.31
2017-04-25T10:19:01.334Z,39.41
2017-04-25T10:20:01.367Z,39.61
2017-04-25T10:21:01.384Z,39.51
2017-04-25T10:22:01.412Z,39.51
2017-04-25T10:23:01.126Z,39.61
2017-04-25T10:24:01.152Z,39.51
2017-04-25T10:25:01.175Z,39.31
2017-04-25T10:26:01.513Z,39.51
2017-04-25T10:27:01.234Z,39.51
2017-04-25T10:28:01.569Z,39.22
2017-04-25T10:29:01.598Z,39.51
2017-04-25T10:30:01.618Z,39.51
2017-04-25T10:31:01.655Z,39.51
2017-04-25T10:32:01.369Z,39.31
2017-04-25T10:33:01.389Z,39.31
2017-04-25T10:34:01.730Z,39.41
2017-04-25T10:35:01.754Z,39.51
2017-04-25T10:36:01.782Z,39.51
2017-04-25T10:37:01.806Z,39.31
2017-04-25T10:38:01.838Z,39.03
2017-04-25T10:39:01.861Z,39.51
2017-04-25T10:40:01.577Z,39.41
2017-04-25T10:41:01.919Z,39.61
2017-04-25T10:42:01.934Z,39.31
2017-04-25T10:43:01.977Z,39.51
2017-04-25T10:44:01.992Z,39.2
2017-04-25T10:45:02.021Z,39.31
2017-04-25T10:46:02.042Z,39.51
2017-04-25T10:47:02.076Z,39.41
2017-04-25T10:48:01.783Z,39.41
2017-04-25T10:49:01.813Z,39.41
2017-04-25T10:50:02.153Z,39.61
2017-04-25T10:51:02.179Z,39.51
2017-04-25T10:52:02.219Z,39.41
2017-04-25T10:53:02.231Z,39.51
2017-04-25T10:54:02.261Z,39.12
2017-04-25T10:55:02.285Z,39.41
2017-04-25T10:56:02.315Z,39.41
2017-04-25T10:57:02.023Z,39.31
2017-04-25T10:58:02.667Z,39.31
2017-04-25T10:59:02.081Z,39.41
2017-04-25T11:00:02.428Z,39.41
2017-04-25T11:01:02.446Z,39.41
2017-04-25T11:02:02.463Z,39.41
2017-04-25T11:03:02.750Z,39.22
2017-04-25T11:04:02.528Z,39.31
2017-04-25T11:05:02.555Z,39.41
2017-04-25T11:06:02.575Z,39.22
2017-04-25T11:07:02.291Z,39.12
2017-04-25T11:08:02.881Z,39.12
2017-04-25T11:09:02.343Z,39.22
2017-04-25T11:10:02.680Z,39.49
2017-04-25T11:11:02.717Z,39.51
2017-04-25T11:12:02.738Z,39.31
2017-04-25T11:13:03.026Z,38.83
2017-04-25T11:14:02.480Z,39.12
2017-04-25T11:15:02.814Z,38.64
2017-04-25T11:16:02.845Z,38.45
2017-04-25T11:17:02.866Z,39.12
2017-04-25T11:18:03.147Z,38.54
2017-04-25T11:19:02.925Z,38.93
2017-04-25T11:20:02.944Z,39.03
2017-04-25T11:21:02.665Z,39.03
2017-04-25T11:22:02.689Z,39.31
2017-04-25T11:23:03.278Z,39.51
2017-04-25T11:24:03.056Z,39.31
2017-04-25T11:25:03.083Z,39.12
2017-04-25T11:26:03.109Z,39.12
2017-04-25T11:27:03.133Z,39.31
2017-04-25T11:28:03.162Z,38.74
2017-04-25T11:29:03.187Z,38.93
2017-04-25T11:30:03.212Z,38.93
2017-04-25T11:31:03.240Z,38.93
2017-04-25T11:32:03.268Z,38.93
2017-04-25T11:33:03.295Z,39.12
2017-04-25T11:34:03.323Z,39.12
2017-04-25T11:35:03.350Z,38.93
2017-04-25T11:36:03.375Z,38.74
2017-04-25T11:37:03.401Z,38.64
2017-04-25T11:38:03.434Z,38.93
2017-04-25T11:39:03.451Z,38.74
2017-04-25T11:40:03.479Z,38.83
2017-04-25T11:41:03.518Z,39.03
2017-04-25T11:42:03.537Z,38.93
2017-04-25T11:43:03.569Z,39.22
2017-04-25T11:44:03.583Z,39.12
2017-04-25T11:45:03.615Z,38.64
2017-04-25T11:46:03.639Z,38.74
2017-04-25T11:47:03.667Z,39.12
2017-04-25T11:48:03.693Z,38.93
2017-04-25T11:49:03.722Z,39.12
2017-04-25T11:50:03.758Z,38.91
2017-04-25T11:51:03.458Z,38.64
2017-04-25T11:52:03.799Z,39.22
2017-04-25T11:53:03.516Z,38.93
2017-04-25T11:54:03.542Z,39.03
2017-04-25T11:55:03.878Z,38.74
2017-04-25T11:56:03.906Z,38.93
2017-04-25T11:57:03.931Z,38.93
2017-04-25T11:58:03.976Z,38.93
2017-04-25T11:59:03.985Z,38.54
2017-04-25T12:00:04.018Z,38.93
2017-04-25T12:01:04.042Z,38.35
2017-04-25T12:02:04.063Z,38.54
2017-04-25T12:03:04.089Z,38.74
2017-04-25T12:04:04.054Z,39.03
2017-04-25T12:05:04.140Z,38.45
2017-04-25T12:06:03.858Z,38.64
2017-04-25T12:07:03.886Z,38.93
2017-04-25T12:08:04.224Z,38.93
2017-04-25T12:09:04.503Z,39.22
2017-04-25T12:10:04.281Z,38.45
2017-04-25T12:11:04.302Z,38.74
2017-04-25T12:12:04.019Z,38.83
2017-04-25T12:13:04.046Z,39.12
2017-04-25T12:14:04.636Z,38.64
2017-04-25T12:15:04.413Z,38.93
2017-04-25T12:16:04.430Z,38.83
2017-04-25T12:17:04.463Z,38.93
2017-04-25T12:18:04.492Z,38.93
2017-04-25T12:19:04.772Z,38.74
2017-04-25T12:20:04.544Z,38.35
2017-04-25T12:21:04.561Z,38.54
2017-04-25T12:22:04.600Z,38.74
2017-04-25T12:23:04.624Z,38.45
2017-04-25T12:24:04.910Z,38.54
2017-04-25T12:25:04.671Z,38.83
2017-04-25T12:26:04.701Z,38.64
2017-04-25T12:27:04.727Z,38.64
2017-04-25T12:28:04.441Z,39.31
2017-04-25T12:29:05.036Z,39.03
2017-04-25T12:30:04.812Z,38.64
2017-04-25T12:31:04.524Z,38.93
2017-04-25T12:32:04.866Z,38.64
2017-04-25T12:33:04.886Z,38.74
2017-04-25T12:34:05.168Z,38.45
2017-04-25T12:35:04.943Z,38.83
2017-04-25T12:36:04.653Z,37.68
2017-04-25T12:37:05.000Z,38.26
2017-04-25T12:38:05.018Z,38.83
2017-04-25T12:39:05.298Z,38.35
2017-04-25T12:40:05.082Z,37.87
2017-04-25T12:41:05.108Z,38.16
2017-04-25T12:42:05.129Z,38.45
2017-04-25T12:43:05.166Z,38.45
2017-04-25T12:44:04.871Z,38.16
2017-04-25T12:45:05.207Z,38.93
2017-04-25T12:46:05.236Z,38.83
2017-04-25T12:47:04.953Z,38.16
2017-04-25T12:48:05.285Z,38.06
2017-04-25T12:49:05.313Z,38.35
2017-04-25T12:50:05.031Z,38.83
2017-04-25T12:51:05.368Z,38.93
2017-04-25T12:52:05.084Z,38.74
2017-04-25T12:53:05.424Z,38.93
2017-04-25T12:54:05.150Z,38.74